Time;durP1;ratioP1;P1;durP2;ratioP2;P2;SDS_P1;SDS_P2;PMS_P1;PMS_P2;Temp;Humidity;BMP_temperature;BMP_pressure;BME280_temperature;BME280_humidity;BME280_pressure;Samples;Min_cycle;Max_cycle;Signal;HPM_P1;HPM_P2
2021/10/29 00:00:10;;;;;;;36.83;24.75;;;;;;;;;;6215679;23;20446;-71
2021/10/29 00:02:36;;;;;;;38.67;24.40;;;;;;;;;;6215584;23;20001;-71
2021/10/29 00:05:04;;;;;;;37.25;24.17;;;;;;;;;;6216296;23;20000;-71
2021/10/29 00:07:30;;;;;;;37.20;25.58;;;;;;;;;;6215861;23;20012;-72
2021/10/29 00:09:58;;;;;;;38.25;24.67;;;;;;;;;;6215947;23;20005;-72
2021/10/29 00:12:24;;;;;;;36.28;24.65;;;;;;;;;;6215848;23;20083;-72
2021/10/29 00:14:50;;;;;;;37.42;24.35;;;;;;;;;;6215667;23;20362;-72
2021/10/29 00:17:17;;;;;;;36.33;23.33;;;;;;;;;;6215782;23;20016;-71
2021/10/29 00:19:43;;;;;;;39.22;24.60;;;;;;;;;;6216086;23;20047;-71
2021/10/29 00:22:10;;;;;;;41.38;26.67;;;;;;;;;;6215404;23;20028;-72
2021/10/29 00:24:36;;;;;;;45.83;26.63;;;;;;;;;;6215772;23;20059;-72
2021/10/29 00:27:02;;;;;;;39.22;25.60;;;;;;;;;;6215634;23;20016;-71
2021/10/29 00:29:29;;;;;;;45.40;27.13;;;;;;;;;;6215604;23;20011;-72
2021/10/29 00:31:55;;;;;;;41.25;28.48;;;;;;;;;;6214949;23;20019;-71
2021/10/29 00:34:21;;;;;;;46.92;28.90;;;;;;;;;;6215523;23;20007;-71
2021/10/29 00:36:47;;;;;;;41.63;27.92;;;;;;;;;;6215565;23;20079;-71
2021/10/29 00:39:13;;;;;;;48.22;32.80;;;;;;;;;;6215723;23;20008;-71
2021/10/29 00:41:40;;;;;;;49.08;32.55;;;;;;;;;;6215941;23;20039;-71
2021/10/29 00:44:06;;;;;;;55.95;33.65;;;;;;;;;;6213894;23;20001;-71
2021/10/29 00:46:32;;;;;;;46.17;29.80;;;;;;;;;;6215415;23;20423;-72
2021/10/29 00:48:58;;;;;;;53.95;32.70;;;;;;;;;;6215530;23;20000;-71
2021/10/29 00:51:25;;;;;;;50.05;30.67;;;;;;;;;;6215053;23;20091;-71
2021/10/29 00:53:51;;;;;;;44.85;30.85;;;;;;;;;;6215223;23;20434;-71
2021/10/29 00:56:18;;;;;;;54.88;31.52;;;;;;;;;;6215631;23;20076;-71
2021/10/29 00:58:44;;;;;;;50.60;30.55;;;;;;;;;;6215346;23;20420;-71
2021/10/29 01:01:10;;;;;;;42.38;28.85;;;;;;;;;;6215263;23;20012;-71
2021/10/29 01:03:37;;;;;;;44.97;28.52;;;;;;;;;;6214897;23;19997;-71
2021/10/29 01:06:03;;;;;;;44.35;29.30;;;;;;;;;;6215195;23;20011;-71
2021/10/29 01:08:29;;;;;;;42.47;29.33;;;;;;;;;;6215823;23;20009;-72
2021/10/29 01:10:56;;;;;;;43.83;29.05;;;;;;;;;;6215357;23;20171;-72
2021/10/29 01:13:22;;;;;;;45.97;28.92;;;;;;;;;;6213130;23;20423;-72
2021/10/29 01:15:49;;;;;;;44.42;29.40;;;;;;;;;;6218183;23;20008;-72
2021/10/29 01:18:15;;;;;;;41.08;28.63;;;;;;;;;;6219072;23;20005;-72
2021/10/29 01:20:41;;;;;;;42.55;29.45;;;;;;;;;;6214883;23;20007;-71
2021/10/29 01:23:11;;;;;;;41.15;28.98;;;;;;;;;;6215454;23;20000;-71
2021/10/29 01:25:42;;;;;;;45.83;30.55;;;;;;;;;;6218001;23;20383;-72
2021/10/29 01:28:11;;;;;;;46.10;31.35;;;;;;;;;;6215110;23;20374;-72
2021/10/29 01:30:38;;;;;;;52.50;33.17;;;;;;;;;;6217004;23;20016;-72
2021/10/29 01:33:04;;;;;;;51.08;32.92;;;;;;;;;;6215072;23;20000;-72
2021/10/29 01:35:30;;;;;;;50.35;33.88;;;;;;;;;;6215407;23;20000;-72
2021/10/29 01:37:56;;;;;;;49.33;33.40;;;;;;;;;;6215275;23;20009;-72
2021/10/29 01:40:23;;;;;;;50.28;33.53;;;;;;;;;;6218161;23;20084;-71
2021/10/29 01:42:49;;;;;;;48.75;32.80;;;;;;;;;;6215192;23;19996;-71
2021/10/29 01:45:17;;;;;;;51.65;35.22;;;;;;;;;;6217378;23;20392;-72
2021/10/29 01:47:43;;;;;;;49.38;32.28;;;;;;;;;;6215604;23;20059;-72
2021/10/29 01:50:14;;;;;;;47.95;32.67;;;;;;;;;;6219354;23;19997;-72
2021/10/29 01:52:41;;;;;;;47.60;31.15;;;;;;;;;;6216520;23;20012;-71
2021/10/29 01:55:08;;;;;;;47.10;32.67;;;;;;;;;;6214588;23;20331;-72
2021/10/29 01:57:35;;;;;;;39.85;29.27;;;;;;;;;;6215408;23;20001;-71
2021/10/29 02:00:01;;;;;;;39.33;26.02;;;;;;;;;;6218746;23;20322;-71
2021/10/29 02:02:27;;;;;;;35.08;24.92;;;;;;;;;;6216297;23;20005;-72
2021/10/29 02:04:55;;;;;;;34.92;23.67;;;;;;;;;;6221190;23;20033;-71
2021/10/29 02:07:24;;;;;;;33.15;23.25;;;;;;;;;;6215425;23;20012;-72
2021/10/29 02:09:51;;;;;;;29.38;22.35;;;;;;;;;;6219854;23;20048;-72
2021/10/29 02:12:18;;;;;;;29.70;21.50;;;;;;;;;;6217832;23;20035;-72
2021/10/29 02:14:44;;;;;;;31.70;21.25;;;;;;;;;;6216864;23;20059;-71
2021/10/29 02:17:11;;;;;;;32.90;20.33;;;;;;;;;;6217281;23;20012;-73
2021/10/29 02:19:37;;;;;;;32.40;20.00;;;;;;;;;;6218882;23;20000;-73
2021/10/29 02:22:04;;;;;;;29.63;20.15;;;;;;;;;;6215336;23;20004;-72
2021/10/29 02:24:30;;;;;;;29.15;20.45;;;;;;;;;;6216750;23;20338;-72
2021/10/29 02:26:59;;;;;;;28.80;20.48;;;;;;;;;;6216685;23;20021;-72
2021/10/29 02:29:25;;;;;;;27.80;20.10;;;;;;;;;;6216901;23;20434;-72
2021/10/29 02:31:51;;;;;;;28.20;19.75;;;;;;;;;;6216763;23;20431;-71
2021/10/29 02:34:17;;;;;;;28.77;18.27;;;;;;;;;;6216594;23;20423;-72
2021/10/29 02:36:43;;;;;;;27.85;18.88;;;;;;;;;;6216727;23;20082;-72
2021/10/29 02:39:09;;;;;;;27.67;20.25;;;;;;;;;;6216590;23;20434;-72
2021/10/29 02:41:35;;;;;;;29.45;20.20;;;;;;;;;;6216677;23;20066;-72
2021/10/29 02:44:04;;;;;;;28.13;20.33;;;;;;;;;;6216868;23;20001;-72
2021/10/29 02:46:30;;;;;;;29.23;19.20;;;;;;;;;;6216887;23;20015;-72
2021/10/29 02:49:00;;;;;;;28.55;17.65;;;;;;;;;;6217400;23;20331;-72
2021/10/29 02:51:30;;;;;;;27.63;18.52;;;;;;;;;;6217167;23;20095;-72
2021/10/29 02:53:59;;;;;;;28.98;20.63;;;;;;;;;;6215355;23;20386;-72
2021/10/29 02:56:25;;;;;;;29.35;20.85;;;;;;;;;;6217063;23;20095;-72
2021/10/29 02:58:51;;;;;;;30.20;20.98;;;;;;;;;;6218778;23;20020;-72
2021/10/29 03:01:17;;;;;;;28.00;20.52;;;;;;;;;;6216648;23;20427;-72
2021/10/29 03:03:43;;;;;;;25.33;17.23;;;;;;;;;;6223830;23;20621;-72
2021/10/29 03:06:09;;;;;;;24.83;16.95;;;;;;;;;;6220763;23;20000;-72
2021/10/29 03:08:36;;;;;;;25.05;17.35;;;;;;;;;;6223606;23;20004;-71
2021/10/29 03:11:03;;;;;;;25.13;15.98;;;;;;;;;;6219334;23;20009;-72
2021/10/29 03:13:29;;;;;;;23.08;16.17;;;;;;;;;;6216126;23;20024;-72
2021/10/29 03:15:55;;;;;;;21.98;15.50;;;;;;;;;;6216287;23;20000;-72
2021/10/29 03:18:22;;;;;;;23.67;16.45;;;;;;;;;;6216344;23;19997;-72
2021/10/29 03:20:48;;;;;;;21.60;16.30;;;;;;;;;;6216106;23;20056;-72
2021/10/29 03:23:16;;;;;;;29.75;17.67;;;;;;;;;;6216567;23;20323;-72
2021/10/29 03:25:43;;;;;;;28.35;21.25;;;;;;;;;;6216270;23;20009;-72
2021/10/29 03:28:10;;;;;;;38.75;25.67;;;;;;;;;;6216789;23;20020;-72
2021/10/29 03:30:36;;;;;;;33.90;23.63;;;;;;;;;;6218349;23;20012;-72
2021/10/29 03:33:03;;;;;;;33.95;25.17;;;;;;;;;;6216521;23;20023;-72
2021/10/29 03:35:29;;;;;;;40.00;24.73;;;;;;;;;;6216409;23;20438;-72
2021/10/29 03:45:55;;;;;;;36.53;23.92;;;;;;;;;;6227643;23;20399;-71
2021/10/29 03:48:34;;;;;;;35.80;24.98;;;;;;;;;;6215442;23;20423;-72
2021/10/29 03:56:40;;;;;;;43.67;29.70;;;;;;;;;;6226505;23;20062;-72
2021/10/29 03:59:02;;;;;;;39.60;29.45;;;;;;;;;;6215727;23;20382;-72
2021/10/29 04:01:28;;;;;;;44.90;29.98;;;;;;;;;;6215678;23;20736;-72
2021/10/29 04:03:55;;;;;;;44.97;31.77;;;;;;;;;;6223204;23;20001;-72
2021/10/29 04:06:21;;;;;;;48.10;31.63;;;;;;;;;;6223217;23;20005;-72
2021/10/29 04:08:47;;;;;;;47.05;30.65;;;;;;;;;;6218207;23;20055;-72
2021/10/29 04:11:14;;;;;;;43.92;30.95;;;;;;;;;;6215957;23;20008;-72
2021/10/29 04:13:44;;;;;;;44.60;30.73;;;;;;;;;;6220717;23;20005;-72
2021/10/29 04:16:11;;;;;;;50.30;30.25;;;;;;;;;;6214829;23;20079;-71
2021/10/29 04:18:37;;;;;;;44.17;29.20;;;;;;;;;;6215862;23;20004;-71
2021/10/29 04:21:04;;;;;;;50.03;33.03;;;;;;;;;;6215479;23;20370;-71
2021/10/29 04:23:30;;;;;;;51.58;32.03;;;;;;;;;;6215867;23;20008;-72
2021/10/29 04:25:56;;;;;;;49.15;33.28;;;;;;;;;;6215536;23;20431;-70
2021/10/29 04:28:23;;;;;;;48.53;32.75;;;;;;;;;;6215547;23;20008;-71
2021/10/29 04:30:49;;;;;;;61.45;37.65;;;;;;;;;;6215317;23;20012;-71
2021/10/29 04:33:17;;;;;;;50.35;34.03;;;;;;;;;;6215588;23;19997;-70
2021/10/29 04:35:47;;;;;;;50.13;33.97;;;;;;;;;;6215618;23;20115;-72
2021/10/29 04:38:14;;;;;;;50.08;34.38;;;;;;;;;;6215236;23;20051;-71
2021/10/29 04:40:43;;;;;;;49.97;34.90;;;;;;;;;;6215626;23;20054;-71
2021/10/29 04:43:12;;;;;;;51.50;35.90;;;;;;;;;;6213808;23;20084;-70
2021/10/29 04:45:38;;;;;;;50.05;36.22;;;;;;;;;;6214396;23;20504;-70
2021/10/29 04:48:05;;;;;;;53.15;37.38;;;;;;;;;;6215679;23;20025;-70
2021/10/29 04:50:31;;;;;;;52.15;36.50;;;;;;;;;;6215808;23;20013;-70
2021/10/29 04:52:57;;;;;;;55.50;38.55;;;;;;;;;;6215432;23;20012;-70
2021/10/29 04:55:23;;;;;;;58.40;37.90;;;;;;;;;;6215804;23;20008;-71
2021/10/29 04:57:49;;;;;;;56.60;37.83;;;;;;;;;;6215522;23;20084;-70
2021/10/29 05:00:16;;;;;;;57.78;38.20;;;;;;;;;;6215049;23;19996;-71
2021/10/29 05:02:42;;;;;;;52.25;39.10;;;;;;;;;;6215193;23;20331;-71
2021/10/29 05:05:09;;;;;;;55.53;38.90;;;;;;;;;;6213673;23;20000;-71
2021/10/29 05:07:35;;;;;;;52.53;36.95;;;;;;;;;;6214775;23;20009;-70
2021/10/29 05:10:03;;;;;;;59.17;36.63;;;103.20;2227.20;;;;;;6214991;23;20423;-70
2021/10/29 05:12:29;;;;;;;57.22;38.28;;;103.00;2227.20;;;;;;6214845;23;20012;-70
2021/10/29 05:14:55;;;;;;;55.88;37.13;;;103.00;2227.20;;;;;;6217076;23;20102;-75
2021/10/29 05:17:21;;;;;;;59.05;37.65;;;103.10;2227.20;;;;;;6216388;23;20015;-71
2021/10/29 05:19:46;;;;;;;51.88;34.70;;;103.10;2227.20;;;;;;6215546;23;20035;-70
2021/10/29 05:22:12;;;;;;;53.22;34.85;;;;;;;;;;6215383;23;20015;-71
2021/10/29 05:24:38;;;;;;;53.05;32.88;;;;;;;;;;6216525;23;20001;-77
2021/10/29 05:27:08;;;;;;;44.22;30.45;;;;;;;;;;6226432;23;20011;-74
2021/10/29 05:29:34;;;;;;;44.33;29.40;;;;;;;;;;6220358;23;20004;-71
2021/10/29 05:32:02;;;;;;;40.42;27.40;;;;;;;;;;6216464;23;20312;-75
2021/10/29 05:34:29;;;;;;;39.25;26.83;;;;;;;;;;6216912;23;20000;-71
2021/10/29 05:36:56;;;;;;;39.20;26.63;;;;;;;;;;6215021;23;20008;-71
2021/10/29 05:39:22;;;;;;;42.25;27.15;;;;;;;;;;6213827;23;20327;-71
2021/10/29 05:41:53;;;;;;;38.10;25.52;;;;;;;;;;6215080;23;20001;-72
2021/10/29 05:44:19;;;;;;;40.85;22.77;;;;;;;;;;6215090;23;20067;-71
2021/10/29 05:46:47;;;;;;;34.30;23.08;;;;;;;;;;6213515;23;20011;-72
2021/10/29 05:49:14;;;;;;;38.05;25.10;;;;;;;;;;6214882;23;20481;-72
2021/10/29 05:51:45;;;;;;;35.03;23.40;;;;;;;;;;6213706;23;20028;-71
2021/10/29 05:54:24;;;;;;;36.22;23.20;;;;;;;;;;6214875;23;19997;-71
2021/10/29 05:57:00;;;;;;;33.53;22.58;;;;;;;;;;6222838;23;20052;-74
2021/10/29 05:59:26;;;;;;;36.03;24.67;;;;;;;;;;6227838;23;20001;-74
2021/10/29 06:01:52;;;;;;;35.67;24.00;;;;;;;;;;6221503;23;20004;-71
2021/10/29 06:04:19;;;;;;;38.53;22.52;;;;;;;;;;6213573;23;20005;-71
2021/10/29 06:06:45;;;;;;;35.63;24.40;;;;;;;;;;6213413;23;20011;-71
2021/10/29 06:09:12;;;;;;;31.70;21.95;;;;;;;;;;6214966;23;20004;-75
2021/10/29 06:11:38;;;;;;;31.85;21.80;;;;;;;;;;6215354;23;20016;-75
2021/10/29 06:14:04;;;;;;;35.88;23.02;;;;;;;;;;6217198;23;20051;-74
2021/10/29 06:16:31;;;;;;;34.05;21.67;;;;;;;;;;6216577;23;20047;-76
2021/10/29 06:18:57;;;;;;;36.35;22.30;;;;;;;;;;6215821;23;20059;-76
2021/10/29 06:21:33;;;;;;;32.88;21.42;;;;;;;;;;6215673;23;20105;-73
2021/10/29 06:24:32;;;;;;;28.58;21.35;;;;;;;;;;6215748;23;20007;-72
2021/10/29 06:29:47;;;;;;;26.67;17.55;;;;;;;;;;6215134;23;20020;-76
2021/10/29 06:32:14;;;;;;;21.75;15.95;;;;;;;;;;6215614;23;20031;-73
2021/10/29 06:34:40;;;;;;;23.95;14.93;;;;;;;;;;6215546;23;20683;-74
2021/10/29 06:37:07;;;;;;;23.52;15.18;;;;;;;;;;6215196;23;20431;-75
2021/10/29 06:39:34;;;;;;;22.02;15.10;;;;;;;;;;6216276;23;20000;-73
2021/10/29 06:42:07;;;;;;;23.95;14.20;;;;;;;;;;6215336;23;20001;-70
2021/10/29 06:45:03;;;;;;;20.20;13.57;;;;;;;;;;6214283;23;20028;-72
2021/10/29 07:01:17;;;;;;;25.33;16.10;;;;;;;;;;6227809;23;20342;-76
2021/10/29 07:40:10;;;;;;;21.67;15.98;;;;;;;;;;6065530;23;20413;-71
2021/10/29 07:42:49;;;;;;;21.08;15.93;;;;;;;;;;6065134;23;20085;-71
2021/10/29 07:45:15;;;;;;;22.10;15.05;;;;;;;;;;6065509;23;20333;-70
2021/10/29 07:47:41;;;;;;;23.17;15.43;;;;;;;;;;6063292;23;20011;-72
2021/10/29 07:50:09;;;;;;;20.27;15.10;;;;;;;;;;6065640;23;20218;-76
2021/10/29 07:52:36;;;;;;;19.83;15.18;;;;;;;;;;6065281;23;20018;-72
2021/10/29 07:55:03;;;;;;;17.88;13.80;;;;;;;;;;6065429;23;20003;-72
2021/10/29 07:57:29;;;;;;;19.80;14.45;;;;;;;;;;6065824;23;20155;-72
2021/10/29 07:59:56;;;;;;;22.05;15.15;;;;;;;;;;6065325;23;19999;-69
2021/10/29 08:05:45;;;;;;;25.80;17.35;;;;;;;;;;6064615;23;20056;-71
2021/10/29 08:08:16;;;;;;;24.13;14.35;;;;;;;;;;6118094;23;20020;-69
2021/10/29 08:10:42;;;;;;;23.42;16.17;;;;;;;;;;6212837;23;20442;-71
2021/10/29 08:13:19;;;;;;;25.92;16.27;;;;;;;;;;6214387;23;20005;-70
2021/10/29 08:15:45;;;;;;;20.10;14.48;;;;;;;;;;6213416;23;20083;-75
2021/10/29 08:18:14;;;;;;;23.80;16.23;;;;;;;;;;6215007;23;20445;-69
2021/10/29 08:20:40;;;;;;;23.80;16.63;;;;;;;;;;6215215;23;20008;-74
2021/10/29 08:23:11;;;;;;;26.85;17.80;;;;;;;;;;6216235;23;20454;-73
2021/10/29 08:25:38;;;;;;;17.20;13.52;;;;;;;;;;6215608;23;20379;-70
2021/10/29 08:30:51;;;;;;;22.67;14.77;;;;;;;;;;6152282;23;20021;-72
2021/10/29 08:33:18;;;;;;;17.70;12.50;;;;;;;;;;6152955;23;20118;-72
2021/10/29 08:35:44;;;;;;;21.33;13.65;;;;;;;;;;6127275;23;20001;-71
2021/10/29 08:38:14;;;;;;;20.45;13.30;;;;;;;;;;6152575;23;20140;-73
2021/10/29 08:40:41;;;;;;;19.42;13.02;;;;;;;;;;6127567;23;20228;-72
2021/10/29 08:43:09;;;;;;;18.25;13.43;;;;;;;;;;6127428;23;20486;-70
2021/10/29 08:45:35;;;;;;;20.65;13.85;;;;;;;;;;6127836;23;20006;-69
2021/10/29 08:48:01;;;;;;;20.40;12.52;;;;;;;;;;6152252;23;20013;-72
2021/10/29 08:50:28;;;;;;;24.20;13.80;;;;;;;;;;6153402;23;20012;-75
2021/10/29 08:52:56;;;;;;;18.15;13.30;;;;;;;;;;6127832;23;20018;-71
2021/10/29 08:55:27;;;;;;;32.60;14.30;;;;;;;;;;6127270;23;20008;-71
2021/10/29 08:57:54;;;;;;;20.48;13.50;;;;;;;;;;6152328;23;20009;-70
2021/10/29 09:00:27;;;;;;;18.98;13.27;;;;;;;;;;6152442;23;20010;-69
2021/10/29 09:03:39;;;;;;;23.15;14.63;;;;;;;;;;6152326;23;20002;-70
2021/10/29 09:09:16;;;;;;;21.85;13.63;;;;;;;;;;6208856;23;20024;-70
2021/10/29 09:16:17;;;;;;;20.92;14.30;;;;;;;;;;6225615;23;20123;-71
2021/10/29 09:31:36;;;;;;;19.00;12.77;;;;;;;;;;6215072;23;20024;-71
2021/10/29 09:34:10;;;;;;;21.80;13.38;;;;;;;;;;6215317;23;20001;-71
2021/10/29 09:36:37;;;;;;;21.70;13.38;;;;;;;;;;6213613;23;20008;-71
2021/10/29 09:39:08;;;;;;;18.02;12.45;;;;;;;;;;6214163;23;20454;-70
2021/10/29 09:41:35;;;;;;;19.20;12.30;;;;;;;;;;6214915;23;20000;-72
2021/10/29 09:44:09;;;;;;;17.42;12.15;;;;;;;;;;6215181;23;20462;-71
2021/10/29 09:46:56;;;;;;;21.65;14.18;;;;;;;;;;6215196;23;20001;-71
2021/10/29 09:49:30;;;;;;;29.75;12.23;;;;;;;;;;6215135;23;20004;-71
2021/10/29 09:54:49;;;;;;;20.63;12.05;;;;;;;;;;6215645;23;20011;-71
2021/10/29 09:57:16;;;;;;;17.33;11.45;;;;;;;;;;6215326;23;20012;-70
2021/10/29 09:59:42;;;;;;;20.45;12.68;;;;;;;;;;6215504;23;20054;-71
2021/10/29 10:02:10;;;;;;;18.88;11.50;;;;;;;;;;6214899;23;20000;-71
2021/10/29 10:04:38;;;;;;;17.35;11.73;;;;;;;;;;6215249;23;20592;-70
2021/10/29 10:07:10;;;;;;;16.95;12.32;;;;;;;;;;6214284;23;20127;-71
2021/10/29 10:09:38;;;;;;;20.58;11.15;;;;;;;;;;6214916;23;20348;-71
2021/10/29 10:12:04;;;;;;;16.98;11.70;;;;;;;;;;6214725;23;20009;-72
2021/10/29 10:14:30;;;;;;;15.45;11.35;;;;;;;;;;6215209;23;20066;-71
2021/10/29 10:16:56;;;;;;;15.18;10.23;;;;;;;;;;6215173;23;20005;-71
2021/10/29 10:19:23;;;;;;;19.10;10.88;;;;;;;;;;6214992;23;20005;-71
2021/10/29 10:21:53;;;;;;;16.60;10.57;;;;;;;;;;6214874;23;20007;-71
2021/10/29 10:24:24;;;;;;;20.83;11.65;;;;;;;;;;6216415;23;19996;-70
2021/10/29 10:48:36;;;;;;;19.85;10.23;;;;;;;;;;6226831;23;20087;-70
2021/10/29 10:51:22;;;;;;;20.58;10.48;;;;;;;;;;6216781;23;20032;-69
2021/10/29 10:53:54;;;;;;;17.35;10.30;;;;;;;;;;6216885;23;20008;-69
2021/10/29 11:07:14;;;;;;;23.73;10.88;;;;;;;;;;6219739;23;20350;-71
2021/10/29 11:10:12;;;;;;;16.98;9.63;;;;;;;;;;6216665;23;20013;-71
2021/10/29 11:12:41;;;;;;;17.98;10.50;;;;;;;;;;6095569;23;20051;-71
2021/10/29 11:15:19;;;;;;;19.90;10.52;;;;;;;;;;6095592;23;20373;-71
2021/10/29 11:18:08;;;;;;;24.27;11.52;;;;;;;;;;6095317;23;20022;-71
2021/10/29 11:20:51;;;;;;;17.90;9.75;;;;;;;;;;6094570;23;20022;-70
2021/10/29 11:23:23;;;;;;;15.05;9.80;;;;;;;;;;6095150;23;20089;-71
2021/10/29 11:26:04;;;;;;;17.20;9.57;;;;;;;;;;6095417;23;20134;-71
2021/10/29 11:28:32;;;;;;;17.90;9.77;;;;;;;;;;6095004;23;20026;-71
2021/10/29 11:30:59;;;;;;;16.02;8.48;;;;;;;;;;6094369;23;20477;-70
2021/10/29 11:33:25;;;;;;;13.20;8.23;;;;;;;;;;6095224;23;20010;-71
2021/10/29 11:36:04;;;;;;;16.60;8.60;;;;;;;;;;6094321;23;20010;-71
2021/10/29 11:38:39;;;;;;;12.40;8.23;;;;;;;;;;6095182;23;20006;-71
2021/10/29 11:41:07;;;;;;;11.55;8.18;;;;;;;;;;6094863;23;20097;-72
2021/10/29 11:43:33;;;;;;;17.40;8.60;;;;;;;;;;6095058;23;20042;-72
2021/10/29 11:46:00;;;;;;;13.38;8.25;;;;;;;;;;6095340;23;20078;-71
2021/10/29 11:48:27;;;;;;;18.92;9.10;;;;;;;;;;6128486;23;20035;-71
2021/10/29 11:51:10;;;;;;;12.38;7.78;;;;;;;;;;6214315;23;20012;-71
2021/10/29 11:53:41;;;;;;;15.52;9.05;;;;;;;;;;6215862;23;20008;-71
2021/10/29 11:56:22;;;;;;;16.83;8.52;;;;;;;;;;6216079;23;19996;-71
2021/10/29 11:59:02;;;;;;;13.40;8.50;;;;;;;;;;6216019;23;20000;-71
2021/10/29 12:01:51;;;;;;;12.75;8.25;;;;;;;;;;6216023;23;19997;-70
2021/10/29 12:09:41;;;;;;;15.07;8.43;;;;;;;;;;6226527;23;20099;-72
2021/10/29 12:12:24;;;;;;;13.80;7.70;;;;;;;;;;6215814;23;20016;-72
2021/10/29 12:14:52;;;;;;;15.90;9.43;;;;;;;;;;6215472;23;20325;-70
2021/10/29 13:56:25;;;;;;;19.80;11.40;;;;;;;;;;5089195;28;20523;-71
2021/10/29 14:31:42;;;;;;;15.43;8.52;;;;;;;;;;5088197;28;20021;-71
2021/10/29 14:34:34;;;;;;;16.80;9.27;;;;;;;;;;5087528;28;20036;-71
2021/10/29 14:37:12;;;;;;;21.42;9.00;;;;;;;;;;5085171;28;20028;-71
2021/10/29 14:39:48;;;;;;;25.13;11.38;;;;;;;;;;5079397;28;20145;-71
2021/10/29 14:42:24;;;;;;;18.40;8.57;;;;;;;;;;5085014;28;20063;-72
2021/10/29 14:45:02;;;;;;;12.27;7.50;;;;;;;;;;5073041;28;20049;-72
2021/10/29 15:06:26;;;;;;;20.08;9.70;;;;;;;;;;5057229;28;20078;-72
2021/10/29 16:35:40;;;;;;;18.77;10.35;;;;;;;;;;5075192;28;20085;-72
2021/10/29 16:38:13;;;;;;;19.70;10.73;;;;;;;;;;5070068;28;20035;-88
2021/10/29 16:40:39;;;;;;;19.80;11.35;;;;;;;;;;5062472;28;20032;-75
2021/10/29 16:43:06;;;;;;;22.67;12.48;;;;;;;;;;5074379;28;20089;-74
2021/10/29 16:45:32;;;;;;;25.55;12.45;;;;;;;;;;5083754;28;20486;-76
2021/10/29 16:47:58;;;;;;;20.55;11.70;;;;;;;;;;5079574;28;20029;-73
2021/10/29 16:50:24;;;;;;;25.05;12.05;;;;;;;;;;5070398;28;20035;-74
2021/10/29 16:52:51;;;;;;;19.15;11.35;;;;;;;;;;5083530;28;20021;-74
2021/10/29 16:55:18;;;;;;;23.10;10.85;;;;;;;;;;5070491;28;20028;-81
2021/10/29 16:57:44;;;;;;;20.00;11.45;;;;;;;;;;5060563;28;20504;-74
2021/10/29 17:00:12;;;;;;;20.50;10.82;;;;;;;;;;5070455;28;20032;-77
2021/10/29 17:02:41;;;;;;;21.30;10.68;;;;;;;;;;5081933;28;20055;-80
2021/10/29 17:05:08;;;;;;;25.60;10.52;;;;;;;;;;5066111;28;20086;-76
2021/10/29 17:07:34;;;;;;;20.83;10.40;;;;;;;;;;5084297;28;20040;-83
2021/10/29 17:10:07;;;;;;;20.55;11.05;;;;;;;;;;5069889;28;20051;-72
2021/10/29 17:12:34;;;;;;;21.15;10.93;;;;;;;;;;5074928;28;20077;-74
2021/10/29 17:15:01;;;;;;;28.65;12.82;;;;;;;;;;5082727;28;20062;-75
2021/10/29 17:17:27;;;;;;;20.88;11.18;;;;;;;;;;5083095;28;20035;-74
2021/10/29 17:19:53;;;;;;;22.33;12.85;;;;;;;;;;5078667;28;20021;-72
2021/10/29 17:22:19;;;;;;;19.33;11.93;;;;;;;;;;5077513;28;20048;-76
2021/10/29 17:24:45;;;;;;;21.17;13.25;;;;;;;;;;5079257;28;20115;-77
2021/10/29 17:27:13;;;;;;;21.60;12.27;;;;;;;;;;5055998;28;20031;-76
2021/10/29 17:29:39;;;;;;;18.38;11.15;;;;;;;;;;5082057;28;21402;-77
2021/10/29 17:32:10;;;;;;;23.17;10.73;;;;;;;;;;5052360;28;20132;-69
2021/10/29 17:34:36;;;;;;;17.63;11.13;;;;;;;;;;5047020;28;20033;-72
2021/10/29 17:37:08;;;;;;;16.95;11.00;;;;;;;;;;5044796;28;20083;-72
2021/10/29 17:39:34;;;;;;;19.88;11.32;;;;;;;;;;5048714;28;20034;-74
2021/10/29 17:42:08;;;;;;;15.82;10.80;;;;;;;;;;5037438;28;20053;-72
2021/10/29 17:44:34;;;;;;;19.98;11.23;;;;;;;;;;5048466;28;20180;-71
2021/10/29 17:47:07;;;;;;;20.85;11.57;;;;;;;;;;5046033;28;20589;-70
2021/10/29 17:49:33;;;;;;;19.40;11.35;;;;;;;;;;5051443;28;20044;-70
2021/10/29 17:52:24;;;;;;;18.20;11.63;;;;;;;;;;5048419;28;20606;-71
2021/10/29 17:54:52;;;;;;;24.52;11.85;;;;;;;;;;5048231;28;20029;-71
2021/10/29 17:57:20;;;;;;;23.00;12.38;;;;;;;;;;5045952;28;20044;-71
2021/10/29 17:59:51;;;;;;;16.75;11.10;;;;;;;;;;5041496;28;20032;-72
2021/10/29 18:02:37;;;;;;;21.23;13.25;;;;;;;;;;5043703;28;20080;-70
2021/10/29 18:05:03;;;;;;;17.48;11.05;;;;;;;;;;5047324;28;20507;-72
2021/10/29 18:07:32;;;;;;;23.48;12.57;;;;;;;;;;5044870;28;20036;-74
2021/10/29 18:09:59;;;;;;;21.45;12.75;;;;;;;;;;5042359;28;20027;-72
2021/10/29 18:12:27;;;;;;;18.27;12.48;;;;;;;;;;5050155;28;20033;-74
2021/10/29 18:14:54;;;;;;;27.63;13.40;;;;;;;;;;5045923;28;20021;-75
2021/10/29 18:17:20;;;;;;;22.73;12.75;;;;;;;;;;5041684;28;20027;-74
2021/10/29 18:19:49;;;;;;;21.83;13.07;;;;;;;;;;5045596;28;20041;-75
2021/10/29 18:22:15;;;;;;;22.65;13.27;;;;;;;;;;5041818;28;20044;-77
2021/10/29 18:24:42;;;;;;;21.80;14.20;;;;;;;;;;5041875;28;20091;-83
2021/10/29 18:27:09;;;;;;;21.17;13.90;;;;;;;;;;5041156;28;20749;-74
2021/10/29 18:29:36;;;;;;;22.17;14.38;;;;;;;;;;5044547;28;20036;-75
2021/10/29 18:32:03;;;;;;;24.92;14.20;;;;;;;;;;5069206;28;20036;-75
2021/10/29 18:34:30;;;;;;;26.58;13.32;;;;;;;;;;5073045;28;20036;-73
2021/10/29 18:36:56;;;;;;;18.73;13.32;;;;;;;;;;5059355;28;20378;-74
2021/10/29 18:39:22;;;;;;;18.80;13.40;;;;;;;;;;5071774;28;20029;-74
2021/10/29 18:41:49;;;;;;;22.95;14.20;;;;;;;;;;5072985;28;20474;-73
2021/10/29 18:44:15;;;;;;;19.67;13.77;;;;;;;;;;5065638;28;20517;-76
2021/10/29 18:47:29;;;;;;;24.00;14.18;;;;;;;;;;5064656;28;20039;-73
2021/10/29 18:49:55;;;;;;;24.00;13.52;;;;;;;;;;5071518;28;20435;-74
2021/10/29 18:53:14;;;;;;;21.17;13.05;;;;;;;;;;5075727;28;20073;-73
2021/10/29 18:55:36;;;;;;;24.50;13.43;;;;;;;;;;4989444;28;20189;-74
2021/10/29 18:58:02;;;;;;;20.30;13.43;;;;;;;;;;4991860;28;20034;-73
2021/10/29 19:00:28;;;;;;;24.27;14.30;;;;;;;;;;4990051;28;20050;-73
2021/10/29 19:02:56;;;;;;;28.35;13.73;;;;;;;;;;4991643;28;20030;-74
2021/10/29 19:05:22;;;;;;;22.27;13.80;;;;;;;;;;4991306;28;20600;-73
2021/10/29 19:07:50;;;;;;;24.13;13.05;;;;;;;;;;4996753;28;20066;-74
2021/10/29 19:10:17;;;;;;;20.67;13.70;;;;;;;;;;4987781;28;20046;-74
2021/10/29 19:12:43;;;;;;;23.60;13.32;;;;;;;;;;4987349;28;20093;-72
2021/10/29 19:15:37;;;;;;;20.88;14.50;;;;;;;;;;4982545;28;20034;-74
2021/10/29 19:18:04;;;;;;;21.92;13.13;;;;;;;;;;4994766;28;20029;-74
2021/10/29 19:20:30;;;;;;;25.55;14.80;;;;;;;;;;4994753;28;20584;-73
2021/10/29 19:22:58;;;;;;;24.02;14.57;;;;;;;;;;4993042;28;20117;-74
2021/10/29 19:25:25;;;;;;;23.05;14.30;;;;;;;;;;4991904;28;20070;-74
2021/10/29 19:27:51;;;;;;;24.73;14.35;;;;;;;;;;4985866;28;20027;-73
2021/10/29 19:30:55;;;;;;;23.48;15.02;;;;;;;;;;4983251;28;20659;-73
2021/10/29 19:33:26;;;;;;;23.48;15.40;;;;;;;;;;4934280;29;20045;-73
2021/10/29 19:35:59;;;;;;;24.75;15.07;;;;;;;;;;4936808;29;20042;-73
2021/10/29 19:38:27;;;;;;;27.37;15.80;;;;;;;;;;4952161;29;20203;-74
2021/10/29 19:40:55;;;;;;;23.35;15.68;;;;;;;;;;4953979;28;20105;-73
2021/10/29 19:43:22;;;;;;;36.17;16.73;;;;;;;;;;4952017;29;20035;-74
2021/10/29 19:45:48;;;;;;;25.25;16.13;;;;;;;;;;4952870;28;20031;-75
2021/10/29 19:48:14;;;;;;;27.05;16.38;;;;;;;;;;4956887;28;20101;-72
2021/10/29 19:51:01;;;;;;;22.85;15.80;;;;;;;;;;4951412;28;20450;-74
2021/10/29 19:53:33;;;;;;;24.38;16.45;;;;;;;;;;4952217;28;20041;-74
2021/10/29 19:56:34;;;;;;;28.20;17.17;;;;;;;;;;4952180;28;20031;-74
2021/10/29 19:58:53;;;;;;;27.58;17.38;;;;;;;;;;4954049;28;20044;-75
2021/10/29 20:01:22;;;;;;;25.40;16.55;;;;;;;;;;4960559;28;20043;-74
2021/10/29 20:03:48;;;;;;;30.35;17.13;;;;;;;;;;4952075;28;20592;-74
2021/10/29 20:06:14;;;;;;;26.60;16.45;;;;;;;;;;4951593;28;20075;-74
2021/10/29 20:09:01;;;;;;;22.88;16.45;;;;;;;;;;4951360;28;20054;-74
2021/10/29 20:11:29;;;;;;;26.45;16.25;;;;;;;;;;5060017;28;20044;-75
2021/10/29 20:13:55;;;;;;;30.35;18.33;;;;;;;;;;5072512;28;20544;-73
2021/10/29 20:16:29;;;;;;;25.73;17.42;;;;;;;;;;5047149;28;20423;-74
2021/10/29 20:18:55;;;;;;;29.63;18.05;;;;;;;;;;5059690;28;20036;-74
2021/10/29 20:21:23;;;;;;;25.08;17.58;;;;;;;;;;5072436;28;20042;-73
2021/10/29 20:23:52;;;;;;;27.80;16.77;;;;;;;;;;5076716;28;20031;-71
2021/10/29 20:26:32;;;;;;;33.60;18.25;;;;;;;;;;5067076;28;20037;-74
2021/10/29 20:29:04;;;;;;;29.08;19.08;;;;;;;;;;5046930;28;20029;-74
2021/10/29 20:31:30;;;;;;;32.28;17.20;;;;;;;;;;5042055;28;20064;-74
2021/10/29 20:33:56;;;;;;;25.33;17.67;;;;;;;;;;5041455;28;20397;-74
2021/10/29 20:36:46;;;;;;;28.73;19.17;;;;;;;;;;5051931;28;20117;-73
2021/10/29 20:39:14;;;;;;;29.65;18.25;;;;;;;;;;5050704;28;20459;-75